This is the latest recevied weather packets stored in our database for station/object PY2WOA-13. If no packets are shown the sender has not sent any weather packets the latest 10 day(s).
| Time | Temp. | Humidity | Pressure | Rain* | Wind** | Luminosity | Snow |
|---|---|---|---|---|---|---|---|
| 1788321904 | 18.89° C | 89% | 1015.7 hPa | - | - | - | - |
| 1788320104 | 19.44° C | 90% | 1015.7 hPa | - | - | - | - |
| 1788318304 | 20° C | 93% | 1015.6 hPa | - | - | - | - |
| 1788316504 | 20.56° C | 89% | 1015.4 hPa | - | - | - | - |
| 1788314704 | 21.67° C | 82% | 1015.1 hPa | - | - | - | - |
| 1788312904 | 22.22° C | 82% | 1014.7 hPa | - | - | - | - |
| 1788311103 | 22.22° C | 87% | 1014.5 hPa | - | - | - | - |
| 1788309304 | 21.11° C | 100% | 1014.4 hPa | - | - | - | - |
| 1788307505 | 21.11° C | 88% | 1014 hPa | - | - | - | - |
| 1788305704 | 21.11° C | 89% | 1013.7 hPa | - | - | - | - |
| 1788303904 | 21.67° C | 87% | 1013 hPa | - | - | - | - |
| 1788302104 | 21.67° C | 83% | 1012.4 hPa | - | - | - | - |
| 1788300304 | 22.78° C | 80% | 1011.5 hPa | - | - | - | - |
| 1788298504 | 23.33° C | 76% | 1010.9 hPa | - | - | - | - |
| 1788296704 | 24.44° C | 72% | 1010.6 hPa | - | - | - | - |
| 1788294904 | 25.56° C | 69% | 1010.4 hPa | - | - | - | - |
| 1788293104 | 27.22° C | 63% | 1010.1 hPa | - | - | - | - |
| 1788291304 | 27.22° C | 63% | 1009.5 hPa | - | - | - | - |
| 1788289506 | 26.11° C | 70% | 1009.6 hPa | - | - | - | - |
| 1788287704 | 27.22° C | 68% | 1009.5 hPa | - | - | - | - |
| 1788285904 | 27.22° C | 67% | 1009.6 hPa | - | - | - | - |
| 1788284104 | 25° C | 76% | 1010.5 hPa | - | - | - | - |
| 1788282304 | 25.56° C | 76% | 1010.8 hPa | - | - | - | - |
| 1788280504 | 25° C | 80% | 1011.2 hPa | - | - | - | - |
| 1788278704 | 23.33° C | 85% | 1011.5 hPa | - | - | - | - |
* Rain since midnight (hover to see other rain measurements)
** Current wind speed in m/s (hover to see current wind gust speed)